Strona główna
METAR-TAF:

METAR-TAF

Lotnisko :

Lençóis, Bahia, Brazylia

Szerokość geograficzna: 12-29-00S, Długość geograficzna: 041-16-23W, wysokość: 511 m

Aktualna obserwacja pogody

Raport powstał 14 godziny i 16 minut temu, godzina 11:00 UTC
Wiatr 2 kt z kierunków zmiennych
Temperatura 23°C
Wilgotność 89%
Ciśnienie 1018 hPa
Widzialność 10 km lub więcej
Brak chmur poniżej 1500 m i brak chmur cumulonimbus

METAR: SBLE 121100Z AUTO VRB02KT CAVOK 23/21 Q1018

czas: 22:16 (01:16 UTC)


TAF: brakujący

Obserwacja i prognoza pogody dla ponad 4000 lotnisk (raport METAR i TAF).

Dostępne stacje oznaczono żółtymi i czerwonymi punktami na mapie.

Najedź kursorem aby zobaczyć nazwę stacji.

Kliknij aby zobaczyć obserwacje i prognozy pogody.

Aby zmienić mapę: kliknij na zielony przycisk z czarnym krzyżykiem, aby powiększyć; na zielony przycisk z myślnikiem, aby pomniejszyć; na zielone strzałki, aby przejść do map sąsiednich.


METAR-TAF: